sensor_id;sensor_type;location;lat;lon;timestamp;temperature;humidity
62573;DHT22;48626;51.678;5.806;2023-03-26T00:01:18;9.60;99.90
62573;DHT22;48626;51.678;5.806;2023-03-26T00:03:45;9.60;99.90
62573;DHT22;48626;51.678;5.806;2023-03-26T00:06:16;9.50;99.90
62573;DHT22;48626;51.678;5.806;2023-03-26T00:08:44;9.50;99.90
62573;DHT22;48626;51.678;5.806;2023-03-26T00:11:12;9.50;99.90
62573;DHT22;48626;51.678;5.806;2023-03-26T00:13:38;9.50;99.90
62573;DHT22;48626;51.678;5.806;2023-03-26T00:16:05;9.50;99.90
62573;DHT22;48626;51.678;5.806;2023-03-26T00:18:32;9.60;99.90
62573;DHT22;48626;51.678;5.806;2023-03-26T00:21:04;9.60;99.90
62573;DHT22;48626;51.678;5.806;2023-03-26T00:23:31;9.60;99.90
62573;DHT22;48626;51.678;5.806;2023-03-26T00:25:58;9.70;99.90
62573;DHT22;48626;51.678;5.806;2023-03-26T00:28:25;9.70;99.90
62573;DHT22;48626;51.678;5.806;2023-03-26T00:31:03;9.70;99.90
62573;DHT22;48626;51.678;5.806;2023-03-26T00:33:29;9.70;99.90
62573;DHT22;48626;51.678;5.806;2023-03-26T00:35:58;9.70;99.90
62573;DHT22;48626;51.678;5.806;2023-03-26T00:38:27;9.80;99.90
62573;DHT22;48626;51.678;5.806;2023-03-26T00:40:54;9.70;99.90
62573;DHT22;48626;51.678;5.806;2023-03-26T00:43:21;9.60;99.90
62573;DHT22;48626;51.678;5.806;2023-03-26T00:45:52;9.60;99.90
62573;DHT22;48626;51.678;5.806;2023-03-26T00:48:20;9.50;99.90
62573;DHT22;48626;51.678;5.806;2023-03-26T00:50:46;9.50;99.90
62573;DHT22;48626;51.678;5.806;2023-03-26T00:53:13;9.50;99.90
62573;DHT22;48626;51.678;5.806;2023-03-26T00:55:40;9.50;99.90
62573;DHT22;48626;51.678;5.806;2023-03-26T00:58:06;9.60;99.90
62573;DHT22;48626;51.678;5.806;2023-03-26T01:00:51;9.60;99.90
62573;DHT22;48626;51.678;5.806;2023-03-26T01:03:18;9.60;99.90
62573;DHT22;48626;51.678;5.806;2023-03-26T01:05:48;9.60;99.90
62573;DHT22;48626;51.678;5.806;2023-03-26T01:10:49;9.50;99.90
62573;DHT22;48626;51.678;5.806;2023-03-26T01:13:29;9.40;99.90
62573;DHT22;48626;51.678;5.806;2023-03-26T01:15:56;9.30;99.90
62573;DHT22;48626;51.678;5.806;2023-03-26T01:18:23;9.30;99.90
62573;DHT22;48626;51.678;5.806;2023-03-26T01:20:54;9.20;99.90
62573;DHT22;48626;51.678;5.806;2023-03-26T01:23:47;9.20;99.90
62573;DHT22;48626;51.678;5.806;2023-03-26T01:28:52;9.20;99.90
62573;DHT22;48626;51.678;5.806;2023-03-26T01:31:22;9.20;99.90
62573;DHT22;48626;51.678;5.806;2023-03-26T01:34:14;9.30;99.90
62573;DHT22;48626;51.678;5.806;2023-03-26T01:39:28;9.20;99.90
62573;DHT22;48626;51.678;5.806;2023-03-26T01:42:11;9.20;99.90
62573;DHT22;48626;51.678;5.806;2023-03-26T01:44:48;9.20;99.90
62573;DHT22;48626;51.678;5.806;2023-03-26T01:47:16;9.20;99.90
62573;DHT22;48626;51.678;5.806;2023-03-26T01:49:42;9.20;99.90
62573;DHT22;48626;51.678;5.806;2023-03-26T01:52:20;9.10;99.90
62573;DHT22;48626;51.678;5.806;2023-03-26T01:54:49;9.00;99.90
62573;DHT22;48626;51.678;5.806;2023-03-26T02:05:07;8.80;99.90
62573;DHT22;48626;51.678;5.806;2023-03-26T02:10:29;8.60;99.90
62573;DHT22;48626;51.678;5.806;2023-03-26T02:12:57;8.60;99.90
62573;DHT22;48626;51.678;5.806;2023-03-26T02:15:23;8.60;99.90
62573;DHT22;48626;51.678;5.806;2023-03-26T02:17:49;8.60;99.90
62573;DHT22;48626;51.678;5.806;2023-03-26T02:20:17;8.60;99.90
62573;DHT22;48626;51.678;5.806;2023-03-26T02:22:45;8.60;99.90
62573;DHT22;48626;51.678;5.806;2023-03-26T02:25:17;8.60;99.90
62573;DHT22;48626;51.678;5.806;2023-03-26T02:27:43;8.60;99.90
62573;DHT22;48626;51.678;5.806;2023-03-26T02:30:16;8.60;99.90
62573;DHT22;48626;51.678;5.806;2023-03-26T02:32:42;8.60;99.90
62573;DHT22;48626;51.678;5.806;2023-03-26T02:35:09;8.50;99.90
62573;DHT22;48626;51.678;5.806;2023-03-26T02:37:35;8.50;99.90
62573;DHT22;48626;51.678;5.806;2023-03-26T02:40:02;8.50;99.90
62573;DHT22;48626;51.678;5.806;2023-03-26T02:42:30;8.50;99.90
62573;DHT22;48626;51.678;5.806;2023-03-26T02:44:55;8.50;99.90
62573;DHT22;48626;51.678;5.806;2023-03-26T02:47:21;8.40;99.90
62573;DHT22;48626;51.678;5.806;2023-03-26T02:49:47;8.40;99.90
62573;DHT22;48626;51.678;5.806;2023-03-26T02:52:12;8.40;99.90
62573;DHT22;48626;51.678;5.806;2023-03-26T02:54:41;8.30;99.90
62573;DHT22;48626;51.678;5.806;2023-03-26T02:57:07;8.30;99.90
62573;DHT22;48626;51.678;5.806;2023-03-26T02:59:32;8.20;99.90
62573;DHT22;48626;51.678;5.806;2023-03-26T03:01:58;8.20;99.90
62573;DHT22;48626;51.678;5.806;2023-03-26T03:04:24;8.20;99.90
62573;DHT22;48626;51.678;5.806;2023-03-26T03:06:49;8.10;99.90
62573;DHT22;48626;51.678;5.806;2023-03-26T03:09:17;8.10;99.90
62573;DHT22;48626;51.678;5.806;2023-03-26T03:11:44;8.20;99.90
62573;DHT22;48626;51.678;5.806;2023-03-26T03:14:10;8.30;99.90
62573;DHT22;48626;51.678;5.806;2023-03-26T03:16:35;8.40;99.90
62573;DHT22;48626;51.678;5.806;2023-03-26T03:19:01;8.50;99.90
62573;DHT22;48626;51.678;5.806;2023-03-26T03:21:28;8.50;99.90
62573;DHT22;48626;51.678;5.806;2023-03-26T03:23:54;8.60;99.90
62573;DHT22;48626;51.678;5.806;2023-03-26T03:26:23;8.60;99.90
62573;DHT22;48626;51.678;5.806;2023-03-26T03:28:53;8.60;99.90
62573;DHT22;48626;51.678;5.806;2023-03-26T03:31:21;8.60;99.90
62573;DHT22;48626;51.678;5.806;2023-03-26T03:33:46;8.60;99.90
62573;DHT22;48626;51.678;5.806;2023-03-26T03:36:13;8.60;99.90
62573;DHT22;48626;51.678;5.806;2023-03-26T03:38:43;8.50;99.90
62573;DHT22;48626;51.678;5.806;2023-03-26T03:41:09;8.50;99.90
62573;DHT22;48626;51.678;5.806;2023-03-26T03:43:35;8.50;99.90
62573;DHT22;48626;51.678;5.806;2023-03-26T03:46:00;8.50;99.90
62573;DHT22;48626;51.678;5.806;2023-03-26T03:48:26;8.50;99.90
62573;DHT22;48626;51.678;5.806;2023-03-26T03:50:53;8.60;99.90
62573;DHT22;48626;51.678;5.806;2023-03-26T03:53:20;8.60;99.90
62573;DHT22;48626;51.678;5.806;2023-03-26T03:55:46;8.60;99.90
62573;DHT22;48626;51.678;5.806;2023-03-26T03:58:19;8.50;99.90
62573;DHT22;48626;51.678;5.806;2023-03-26T04:00:48;8.50;99.90
62573;DHT22;48626;51.678;5.806;2023-03-26T04:03:14;8.50;99.90
62573;DHT22;48626;51.678;5.806;2023-03-26T04:05:39;8.50;99.90
62573;DHT22;48626;51.678;5.806;2023-03-26T04:08:05;8.50;99.90
62573;DHT22;48626;51.678;5.806;2023-03-26T04:10:31;8.50;99.90
62573;DHT22;48626;51.678;5.806;2023-03-26T04:12:56;8.50;99.90
62573;DHT22;48626;51.678;5.806;2023-03-26T04:15:22;8.50;99.90
62573;DHT22;48626;51.678;5.806;2023-03-26T04:17:48;8.50;99.90
62573;DHT22;48626;51.678;5.806;2023-03-26T04:20:13;8.60;99.90
62573;DHT22;48626;51.678;5.806;2023-03-26T04:22:41;8.60;99.90
62573;DHT22;48626;51.678;5.806;2023-03-26T04:25:09;8.60;99.90
62573;DHT22;48626;51.678;5.806;2023-03-26T04:27:35;8.60;99.90
62573;DHT22;48626;51.678;5.806;2023-03-26T04:30:02;8.70;99.90
62573;DHT22;48626;51.678;5.806;2023-03-26T04:32:29;8.70;99.90
62573;DHT22;48626;51.678;5.806;2023-03-26T04:34:59;8.70;99.90
62573;DHT22;48626;51.678;5.806;2023-03-26T04:37:27;8.70;99.90
62573;DHT22;48626;51.678;5.806;2023-03-26T04:40:00;8.70;99.90
62573;DHT22;48626;51.678;5.806;2023-03-26T04:42:30;8.70;99.90
62573;DHT22;48626;51.678;5.806;2023-03-26T04:44:57;8.70;99.90
62573;DHT22;48626;51.678;5.806;2023-03-26T04:47:24;8.70;99.90
62573;DHT22;48626;51.678;5.806;2023-03-26T04:49:49;8.70;99.90
62573;DHT22;48626;51.678;5.806;2023-03-26T04:52:15;8.60;99.90
62573;DHT22;48626;51.678;5.806;2023-03-26T04:54:43;8.60;99.90
62573;DHT22;48626;51.678;5.806;2023-03-26T04:57:21;8.70;99.90
62573;DHT22;48626;51.678;5.806;2023-03-26T04:59:47;8.60;99.90
62573;DHT22;48626;51.678;5.806;2023-03-26T05:02:14;8.60;99.90
62573;DHT22;48626;51.678;5.806;2023-03-26T05:04:40;8.50;99.90
62573;DHT22;48626;51.678;5.806;2023-03-26T05:07:09;8.60;99.90
62573;DHT22;48626;51.678;5.806;2023-03-26T05:09:36;8.60;99.90
62573;DHT22;48626;51.678;5.806;2023-03-26T05:12:01;8.60;99.90
62573;DHT22;48626;51.678;5.806;2023-03-26T05:14:27;8.60;99.90
62573;DHT22;48626;51.678;5.806;2023-03-26T05:16:53;8.60;99.90
62573;DHT22;48626;51.678;5.806;2023-03-26T05:19:18;8.60;99.90
62573;DHT22;48626;51.678;5.806;2023-03-26T05:21:44;8.70;99.90
62573;DHT22;48626;51.678;5.806;2023-03-26T05:24:10;8.60;99.90
62573;DHT22;48626;51.678;5.806;2023-03-26T05:26:36;8.60;99.90
62573;DHT22;48626;51.678;5.806;2023-03-26T05:29:02;8.70;99.90
62573;DHT22;48626;51.678;5.806;2023-03-26T05:31:29;8.60;99.90
62573;DHT22;48626;51.678;5.806;2023-03-26T05:33:56;8.60;99.90
62573;DHT22;48626;51.678;5.806;2023-03-26T05:36:22;8.60;99.90
62573;DHT22;48626;51.678;5.806;2023-03-26T05:38:48;8.70;99.90
62573;DHT22;48626;51.678;5.806;2023-03-26T05:41:15;8.70;99.90
62573;DHT22;48626;51.678;5.806;2023-03-26T05:43:41;8.70;99.90
62573;DHT22;48626;51.678;5.806;2023-03-26T05:46:08;8.60;99.90
62573;DHT22;48626;51.678;5.806;2023-03-26T05:48:33;8.60;99.90
62573;DHT22;48626;51.678;5.806;2023-03-26T05:50:59;8.60;99.90
62573;DHT22;48626;51.678;5.806;2023-03-26T05:53:26;8.70;99.90
62573;DHT22;48626;51.678;5.806;2023-03-26T05:55:52;8.70;99.90
62573;DHT22;48626;51.678;5.806;2023-03-26T05:58:30;8.70;99.90
62573;DHT22;48626;51.678;5.806;2023-03-26T06:01:02;8.70;99.90
62573;DHT22;48626;51.678;5.806;2023-03-26T06:03:38;8.70;99.90
62573;DHT22;48626;51.678;5.806;2023-03-26T06:06:08;8.70;99.90
62573;DHT22;48626;51.678;5.806;2023-03-26T06:08:34;8.70;99.90
62573;DHT22;48626;51.678;5.806;2023-03-26T06:11:02;8.70;99.90
62573;DHT22;48626;51.678;5.806;2023-03-26T06:13:28;8.70;99.90
62573;DHT22;48626;51.678;5.806;2023-03-26T06:15:53;8.70;99.90
62573;DHT22;48626;51.678;5.806;2023-03-26T06:18:19;8.70;99.90
62573;DHT22;48626;51.678;5.806;2023-03-26T06:20:45;8.70;99.90
62573;DHT22;48626;51.678;5.806;2023-03-26T06:23:11;8.80;99.90
62573;DHT22;48626;51.678;5.806;2023-03-26T06:25:37;8.80;99.90
62573;DHT22;48626;51.678;5.806;2023-03-26T06:28:03;8.80;99.90
62573;DHT22;48626;51.678;5.806;2023-03-26T06:30:29;8.90;99.90
62573;DHT22;48626;51.678;5.806;2023-03-26T06:32:54;8.90;99.90
62573;DHT22;48626;51.678;5.806;2023-03-26T06:35:20;8.90;99.90
62573;DHT22;48626;51.678;5.806;2023-03-26T06:37:46;8.90;99.90
62573;DHT22;48626;51.678;5.806;2023-03-26T06:40:12;8.90;99.90
62573;DHT22;48626;51.678;5.806;2023-03-26T06:42:37;9.00;99.90
62573;DHT22;48626;51.678;5.806;2023-03-26T06:45:04;9.00;99.90
62573;DHT22;48626;51.678;5.806;2023-03-26T06:47:30;9.00;99.90
62573;DHT22;48626;51.678;5.806;2023-03-26T06:49:56;9.00;99.90
62573;DHT22;48626;51.678;5.806;2023-03-26T06:52:21;9.00;99.90
62573;DHT22;48626;51.678;5.806;2023-03-26T06:54:47;9.10;99.90
62573;DHT22;48626;51.678;5.806;2023-03-26T06:57:12;9.10;99.90
62573;DHT22;48626;51.678;5.806;2023-03-26T06:59:38;9.10;99.90
62573;DHT22;48626;51.678;5.806;2023-03-26T07:02:04;9.10;99.90
62573;DHT22;48626;51.678;5.806;2023-03-26T07:04:29;9.10;99.90
62573;DHT22;48626;51.678;5.806;2023-03-26T07:06:55;9.10;99.90
62573;DHT22;48626;51.678;5.806;2023-03-26T07:09:21;9.10;99.90
62573;DHT22;48626;51.678;5.806;2023-03-26T07:11:46;9.10;99.90
62573;DHT22;48626;51.678;5.806;2023-03-26T07:14:12;9.10;99.90
62573;DHT22;48626;51.678;5.806;2023-03-26T07:16:41;9.10;99.90
62573;DHT22;48626;51.678;5.806;2023-03-26T07:19:06;9.10;99.90
62573;DHT22;48626;51.678;5.806;2023-03-26T07:21:32;9.10;99.90
62573;DHT22;48626;51.678;5.806;2023-03-26T07:23:58;9.20;99.90
62573;DHT22;48626;51.678;5.806;2023-03-26T07:26:58;9.20;99.90
62573;DHT22;48626;51.678;5.806;2023-03-26T07:29:41;9.20;99.90
62573;DHT22;48626;51.678;5.806;2023-03-26T07:32:27;9.20;99.90
62573;DHT22;48626;51.678;5.806;2023-03-26T07:35:26;9.20;99.90
62573;DHT22;48626;51.678;5.806;2023-03-26T07:41:16;9.20;99.90
62573;DHT22;48626;51.678;5.806;2023-03-26T07:44:01;9.20;99.90
62573;DHT22;48626;51.678;5.806;2023-03-26T07:46:32;9.20;99.90
62573;DHT22;48626;51.678;5.806;2023-03-26T07:49:04;9.20;99.90
62573;DHT22;48626;51.678;5.806;2023-03-26T07:51:31;9.30;99.90
62573;DHT22;48626;51.678;5.806;2023-03-26T07:53:57;9.30;99.90
62573;DHT22;48626;51.678;5.806;2023-03-26T08:01:52;9.30;99.90
62573;DHT22;48626;51.678;5.806;2023-03-26T08:07:22;9.30;99.90
62573;DHT22;48626;51.678;5.806;2023-03-26T08:12:47;9.30;99.90
62573;DHT22;48626;51.678;5.806;2023-03-26T08:18:25;9.40;99.90
62573;DHT22;48626;51.678;5.806;2023-03-26T08:20:59;9.40;99.90
62573;DHT22;48626;51.678;5.806;2023-03-26T08:23:37;9.40;99.90
62573;DHT22;48626;51.678;5.806;2023-03-26T08:29:15;9.50;99.90
62573;DHT22;48626;51.678;5.806;2023-03-26T08:31:43;9.50;99.90
62573;DHT22;48626;51.678;5.806;2023-03-26T08:34:11;9.50;99.90
62573;DHT22;48626;51.678;5.806;2023-03-26T08:36:37;9.60;99.90
62573;DHT22;48626;51.678;5.806;2023-03-26T08:39:04;9.60;99.90
62573;DHT22;48626;51.678;5.806;2023-03-26T08:49:33;9.70;99.90
62573;DHT22;48626;51.678;5.806;2023-03-26T09:03:01;9.90;99.90
62573;DHT22;48626;51.678;5.806;2023-03-26T09:05:53;9.90;99.90
62573;DHT22;48626;51.678;5.806;2023-03-26T09:28:20;10.40;99.90
62573;DHT22;48626;51.678;5.806;2023-03-26T09:31:31;10.50;99.90
62573;DHT22;48626;51.678;5.806;2023-03-26T09:36:55;10.60;99.90
62573;DHT22;48626;51.678;5.806;2023-03-26T09:39:33;10.60;99.90
62573;DHT22;48626;51.678;5.806;2023-03-26T09:44:56;10.80;99.90
62573;DHT22;48626;51.678;5.806;2023-03-26T09:58:22;10.90;99.90
62573;DHT22;48626;51.678;5.806;2023-03-26T10:09:50;10.80;99.90
62573;DHT22;48626;51.678;5.806;2023-03-26T10:12:22;10.90;99.90
62573;DHT22;48626;51.678;5.806;2023-03-26T10:26:07;11.20;99.90
62573;DHT22;48626;51.678;5.806;2023-03-26T10:28:56;11.20;99.90
62573;DHT22;48626;51.678;5.806;2023-03-26T10:31:45;11.20;99.90
62573;DHT22;48626;51.678;5.806;2023-03-26T10:36:56;11.10;99.90
62573;DHT22;48626;51.678;5.806;2023-03-26T10:48:01;10.90;99.90
62573;DHT22;48626;51.678;5.806;2023-03-26T10:56:04;10.90;99.90
62573;DHT22;48626;51.678;5.806;2023-03-26T10:58:33;10.90;99.90
62573;DHT22;48626;51.678;5.806;2023-03-26T11:01:10;10.80;99.90
62573;DHT22;48626;51.678;5.806;2023-03-26T11:03:51;10.90;99.90
62573;DHT22;48626;51.678;5.806;2023-03-26T11:09:23;11.00;99.90
62573;DHT22;48626;51.678;5.806;2023-03-26T11:11:59;11.00;99.90
62573;DHT22;48626;51.678;5.806;2023-03-26T11:19:58;11.00;99.90
62573;DHT22;48626;51.678;5.806;2023-03-26T11:22:37;11.00;99.90
62573;DHT22;48626;51.678;5.806;2023-03-26T11:28:05;10.90;99.90
62573;DHT22;48626;51.678;5.806;2023-03-26T11:30:39;11.00;99.90
62573;DHT22;48626;51.678;5.806;2023-03-26T11:33:10;11.10;99.90
62573;DHT22;48626;51.678;5.806;2023-03-26T11:35:43;11.20;99.90
62573;DHT22;48626;51.678;5.806;2023-03-26T11:38:31;11.10;99.90
62573;DHT22;48626;51.678;5.806;2023-03-26T11:41:03;11.20;99.90
62573;DHT22;48626;51.678;5.806;2023-03-26T11:43:34;11.40;99.90
62573;DHT22;48626;51.678;5.806;2023-03-26T11:46:02;11.50;99.90
62573;DHT22;48626;51.678;5.806;2023-03-26T11:48:37;11.60;99.90
62573;DHT22;48626;51.678;5.806;2023-03-26T11:51:17;11.50;99.90
62573;DHT22;48626;51.678;5.806;2023-03-26T11:53:45;11.50;99.90
62573;DHT22;48626;51.678;5.806;2023-03-26T12:01:41;11.30;99.90
62573;DHT22;48626;51.678;5.806;2023-03-26T12:04:13;11.20;99.90
62573;DHT22;48626;51.678;5.806;2023-03-26T12:06:56;11.30;99.90
62573;DHT22;48626;51.678;5.806;2023-03-26T12:09:24;11.30;99.90
62573;DHT22;48626;51.678;5.806;2023-03-26T12:11:59;11.30;99.90
62573;DHT22;48626;51.678;5.806;2023-03-26T12:14:29;11.40;99.90
62573;DHT22;48626;51.678;5.806;2023-03-26T12:17:02;11.40;99.90
62573;DHT22;48626;51.678;5.806;2023-03-26T12:19:35;11.50;99.90
62573;DHT22;48626;51.678;5.806;2023-03-26T12:22:03;11.50;99.90
62573;DHT22;48626;51.678;5.806;2023-03-26T12:24:31;11.50;99.90
62573;DHT22;48626;51.678;5.806;2023-03-26T12:26:59;11.60;99.90
62573;DHT22;48626;51.678;5.806;2023-03-26T12:29:29;11.60;99.90
62573;DHT22;48626;51.678;5.806;2023-03-26T12:32:05;11.70;99.90
62573;DHT22;48626;51.678;5.806;2023-03-26T12:34:37;11.70;99.90
62573;DHT22;48626;51.678;5.806;2023-03-26T12:37:05;11.70;99.90
62573;DHT22;48626;51.678;5.806;2023-03-26T12:39:35;11.80;99.90
62573;DHT22;48626;51.678;5.806;2023-03-26T12:42:05;11.90;99.90
62573;DHT22;48626;51.678;5.806;2023-03-26T12:44:45;12.10;99.90
62573;DHT22;48626;51.678;5.806;2023-03-26T12:49:41;12.10;99.90
62573;DHT22;48626;51.678;5.806;2023-03-26T13:00:54;12.20;99.90
62573;DHT22;48626;51.678;5.806;2023-03-26T13:12:18;12.30;99.90
62573;DHT22;48626;51.678;5.806;2023-03-26T13:14:53;12.00;99.90
62573;DHT22;48626;51.678;5.806;2023-03-26T13:34:45;11.20;99.90
62573;DHT22;48626;51.678;5.806;2023-03-26T13:37:36;11.20;99.90
62573;DHT22;48626;51.678;5.806;2023-03-26T13:46:35;11.40;99.90
62573;DHT22;48626;51.678;5.806;2023-03-26T13:49:19;11.30;99.90
62573;DHT22;48626;51.678;5.806;2023-03-26T13:51:47;11.20;99.90
62573;DHT22;48626;51.678;5.806;2023-03-26T13:57:08;11.40;99.90
62573;DHT22;48626;51.678;5.806;2023-03-26T13:59:47;11.40;99.90
62573;DHT22;48626;51.678;5.806;2023-03-26T14:02:45;11.40;99.90
62573;DHT22;48626;51.678;5.806;2023-03-26T14:07:50;11.20;99.90
62573;DHT22;48626;51.678;5.806;2023-03-26T14:10:24;11.10;99.90
62573;DHT22;48626;51.678;5.806;2023-03-26T14:16:01;10.80;99.90
62573;DHT22;48626;51.678;5.806;2023-03-26T14:24:27;10.30;99.90
62573;DHT22;48626;51.678;5.806;2023-03-26T14:27:09;10.30;99.90
62573;DHT22;48626;51.678;5.806;2023-03-26T14:35:59;10.40;99.90
62573;DHT22;48626;51.678;5.806;2023-03-26T14:41:23;10.40;99.90
62573;DHT22;48626;51.678;5.806;2023-03-26T14:50:07;10.60;99.90
62573;DHT22;48626;51.678;5.806;2023-03-26T14:54:56;10.70;99.90
62573;DHT22;48626;51.678;5.806;2023-03-26T15:08:46;10.90;99.90
62573;DHT22;48626;51.678;5.806;2023-03-26T15:14:30;10.90;99.90
62573;DHT22;48626;51.678;5.806;2023-03-26T15:30:51;10.70;99.90
62573;DHT22;48626;51.678;5.806;2023-03-26T15:33:45;10.70;99.90
62573;DHT22;48626;51.678;5.806;2023-03-26T15:46:31;10.30;99.90
62573;DHT22;48626;51.678;5.806;2023-03-26T15:51:53;10.20;99.90
62573;DHT22;48626;51.678;5.806;2023-03-26T16:02:20;10.10;99.90
62573;DHT22;48626;51.678;5.806;2023-03-26T16:10:55;10.30;99.90
62573;DHT22;48626;51.678;5.806;2023-03-26T16:13:53;10.30;99.90
62573;DHT22;48626;51.678;5.806;2023-03-26T16:16:56;10.20;99.90
62573;DHT22;48626;51.678;5.806;2023-03-26T16:19:32;10.20;99.90
62573;DHT22;48626;51.678;5.806;2023-03-26T16:30:37;10.00;99.90
62573;DHT22;48626;51.678;5.806;2023-03-26T16:36:42;9.90;99.90
62573;DHT22;48626;51.678;5.806;2023-03-26T16:38:47;10.00;99.90
62573;DHT22;48626;51.678;5.806;2023-03-26T16:44:48;9.80;99.90
62573;DHT22;48626;51.678;5.806;2023-03-26T16:55:40;9.50;99.90
62573;DHT22;48626;51.678;5.806;2023-03-26T17:03:49;9.40;99.90
62573;DHT22;48626;51.678;5.806;2023-03-26T17:15:18;9.20;99.90
62573;DHT22;48626;51.678;5.806;2023-03-26T17:23:34;9.10;99.90
62573;DHT22;48626;51.678;5.806;2023-03-26T17:28:50;8.90;99.90
62573;DHT22;48626;51.678;5.806;2023-03-26T17:33:48;8.90;99.90
62573;DHT22;48626;51.678;5.806;2023-03-26T17:41:46;8.90;99.90
62573;DHT22;48626;51.678;5.806;2023-03-26T17:43:59;8.80;99.90
62573;DHT22;48626;51.678;5.806;2023-03-26T17:46:43;8.80;99.90
62573;DHT22;48626;51.678;5.806;2023-03-26T17:51:51;8.70;99.90
62573;DHT22;48626;51.678;5.806;2023-03-26T17:57:01;8.60;99.90
62573;DHT22;48626;51.678;5.806;2023-03-26T17:59:28;8.50;99.90
62573;DHT22;48626;51.678;5.806;2023-03-26T18:01:57;8.60;99.90
62573;DHT22;48626;51.678;5.806;2023-03-26T18:04:34;8.60;99.90
62573;DHT22;48626;51.678;5.806;2023-03-26T18:15:32;8.60;99.90
62573;DHT22;48626;51.678;5.806;2023-03-26T18:18:13;8.50;99.90
62573;DHT22;48626;51.678;5.806;2023-03-26T18:20:43;8.50;99.90
62573;DHT22;48626;51.678;5.806;2023-03-26T18:23:24;8.50;99.90
62573;DHT22;48626;51.678;5.806;2023-03-26T18:26:30;8.40;99.90
62573;DHT22;48626;51.678;5.806;2023-03-26T18:31:48;8.50;99.90
62573;DHT22;48626;51.678;5.806;2023-03-26T18:34:17;8.40;99.90
62573;DHT22;48626;51.678;5.806;2023-03-26T18:39:33;8.40;99.90
62573;DHT22;48626;51.678;5.806;2023-03-26T18:41:59;8.30;99.90
62573;DHT22;48626;51.678;5.806;2023-03-26T18:44:24;8.30;99.90
62573;DHT22;48626;51.678;5.806;2023-03-26T18:46:53;8.20;99.90
62573;DHT22;48626;51.678;5.806;2023-03-26T18:49:20;8.10;99.90
62573;DHT22;48626;51.678;5.806;2023-03-26T18:51:46;8.10;99.90
62573;DHT22;48626;51.678;5.806;2023-03-26T18:54:15;8.00;99.90
62573;DHT22;48626;51.678;5.806;2023-03-26T18:56:45;8.00;99.90
62573;DHT22;48626;51.678;5.806;2023-03-26T18:59:27;8.00;99.90
62573;DHT22;48626;51.678;5.806;2023-03-26T19:01:55;7.90;99.90
62573;DHT22;48626;51.678;5.806;2023-03-26T19:04:25;7.90;99.90
62573;DHT22;48626;51.678;5.806;2023-03-26T19:06:55;7.90;99.90
62573;DHT22;48626;51.678;5.806;2023-03-26T19:09:22;7.90;99.90
62573;DHT22;48626;51.678;5.806;2023-03-26T19:11:53;7.80;99.90
62573;DHT22;48626;51.678;5.806;2023-03-26T19:14:20;7.80;99.90
62573;DHT22;48626;51.678;5.806;2023-03-26T19:16:51;7.80;99.90
62573;DHT22;48626;51.678;5.806;2023-03-26T19:19:22;7.80;99.90
62573;DHT22;48626;51.678;5.806;2023-03-26T19:21:50;7.70;99.90
62573;DHT22;48626;51.678;5.806;2023-03-26T19:24:17;7.60;99.90
62573;DHT22;48626;51.678;5.806;2023-03-26T19:26:44;7.60;99.90
62573;DHT22;48626;51.678;5.806;2023-03-26T19:29:18;7.60;99.90
62573;DHT22;48626;51.678;5.806;2023-03-26T19:31:49;7.60;99.90
62573;DHT22;48626;51.678;5.806;2023-03-26T19:34:37;7.60;99.90
62573;DHT22;48626;51.678;5.806;2023-03-26T19:37:20;7.60;99.90
62573;DHT22;48626;51.678;5.806;2023-03-26T19:39:51;7.70;99.90
62573;DHT22;48626;51.678;5.806;2023-03-26T19:42:23;7.60;99.90
62573;DHT22;48626;51.678;5.806;2023-03-26T19:44:51;7.50;99.90
62573;DHT22;48626;51.678;5.806;2023-03-26T19:47:20;7.40;99.90
62573;DHT22;48626;51.678;5.806;2023-03-26T19:49:47;7.30;99.90
62573;DHT22;48626;51.678;5.806;2023-03-26T19:55:16;7.30;99.90
62573;DHT22;48626;51.678;5.806;2023-03-26T19:57:43;7.30;99.90
62573;DHT22;48626;51.678;5.806;2023-03-26T20:00:10;7.20;99.90
62573;DHT22;48626;51.678;5.806;2023-03-26T20:02:41;7.20;99.90
62573;DHT22;48626;51.678;5.806;2023-03-26T20:05:22;7.10;99.90
62573;DHT22;48626;51.678;5.806;2023-03-26T20:07:54;7.20;99.90
62573;DHT22;48626;51.678;5.806;2023-03-26T20:10:20;7.20;99.90
62573;DHT22;48626;51.678;5.806;2023-03-26T20:12:46;7.10;99.90
62573;DHT22;48626;51.678;5.806;2023-03-26T20:15:32;7.10;99.90
62573;DHT22;48626;51.678;5.806;2023-03-26T20:17:58;7.10;99.90
62573;DHT22;48626;51.678;5.806;2023-03-26T20:20:25;7.10;99.90
62573;DHT22;48626;51.678;5.806;2023-03-26T20:22:55;7.00;99.90
62573;DHT22;48626;51.678;5.806;2023-03-26T20:25:23;7.00;99.90
62573;DHT22;48626;51.678;5.806;2023-03-26T20:27:50;6.90;99.90
62573;DHT22;48626;51.678;5.806;2023-03-26T20:30:19;6.80;99.90
62573;DHT22;48626;51.678;5.806;2023-03-26T20:32:45;6.80;99.90
62573;DHT22;48626;51.678;5.806;2023-03-26T20:35:20;6.70;99.90
62573;DHT22;48626;51.678;5.806;2023-03-26T20:37:46;6.60;99.90
62573;DHT22;48626;51.678;5.806;2023-03-26T20:40:13;6.60;99.90
62573;DHT22;48626;51.678;5.806;2023-03-26T20:42:43;6.50;99.90
62573;DHT22;48626;51.678;5.806;2023-03-26T20:45:22;6.40;99.90
62573;DHT22;48626;51.678;5.806;2023-03-26T20:47:49;6.20;99.90
62573;DHT22;48626;51.678;5.806;2023-03-26T20:50:19;6.10;99.90
62573;DHT22;48626;51.678;5.806;2023-03-26T20:52:49;6.00;99.90
62573;DHT22;48626;51.678;5.806;2023-03-26T20:55:17;6.00;99.90
62573;DHT22;48626;51.678;5.806;2023-03-26T20:57:46;5.90;99.90
62573;DHT22;48626;51.678;5.806;2023-03-26T21:00:13;5.80;99.90
62573;DHT22;48626;51.678;5.806;2023-03-26T21:02:46;5.80;99.90
62573;DHT22;48626;51.678;5.806;2023-03-26T21:05:12;5.70;99.90
62573;DHT22;48626;51.678;5.806;2023-03-26T21:07:43;5.60;99.90
62573;DHT22;48626;51.678;5.806;2023-03-26T21:10:11;5.60;99.90
62573;DHT22;48626;51.678;5.806;2023-03-26T21:15:12;5.50;99.90
62573;DHT22;48626;51.678;5.806;2023-03-26T21:17:38;5.50;99.90
62573;DHT22;48626;51.678;5.806;2023-03-26T21:20:04;5.40;99.90
62573;DHT22;48626;51.678;5.806;2023-03-26T21:22:52;5.40;99.90
62573;DHT22;48626;51.678;5.806;2023-03-26T21:25:24;5.40;99.90
62573;DHT22;48626;51.678;5.806;2023-03-26T21:30:47;5.30;99.90
62573;DHT22;48626;51.678;5.806;2023-03-26T21:33:13;5.30;99.90
62573;DHT22;48626;51.678;5.806;2023-03-26T21:35:39;5.30;99.90
62573;DHT22;48626;51.678;5.806;2023-03-26T21:38:06;5.40;99.90
62573;DHT22;48626;51.678;5.806;2023-03-26T21:40:33;5.50;99.90
62573;DHT22;48626;51.678;5.806;2023-03-26T21:43:00;5.50;99.90
62573;DHT22;48626;51.678;5.806;2023-03-26T21:45:26;5.50;99.90
62573;DHT22;48626;51.678;5.806;2023-03-26T21:47:52;5.60;99.90
62573;DHT22;48626;51.678;5.806;2023-03-26T21:50:20;5.60;99.90
62573;DHT22;48626;51.678;5.806;2023-03-26T21:52:48;5.60;99.90
62573;DHT22;48626;51.678;5.806;2023-03-26T21:55:23;5.70;99.90
62573;DHT22;48626;51.678;5.806;2023-03-26T22:03:43;5.60;99.90
62573;DHT22;48626;51.678;5.806;2023-03-26T22:06:23;5.50;99.90
62573;DHT22;48626;51.678;5.806;2023-03-26T22:08:51;5.40;99.90
62573;DHT22;48626;51.678;5.806;2023-03-26T22:11:17;5.40;99.90